createdAt,value
2023-06-04T00:00:32.730Z,15.27
2023-06-04T00:03:05.943Z,15.23
2023-06-04T00:05:39.132Z,15.18
2023-06-04T00:08:12.250Z,15.17
2023-06-04T00:10:45.389Z,15.12
2023-06-04T00:13:18.495Z,15.13
2023-06-04T00:15:53.246Z,15.13
2023-06-04T00:18:26.763Z,15.08
2023-06-04T00:20:59.889Z,14.90
2023-06-04T00:23:33.048Z,14.92
2023-06-04T00:26:06.530Z,14.96
2023-06-04T00:28:39.684Z,14.96
2023-06-04T00:31:14.432Z,14.91
2023-06-04T00:33:47.513Z,14.85
2023-06-04T00:36:20.690Z,14.73
2023-06-04T00:38:53.804Z,14.76
2023-06-04T00:41:27.392Z,14.75
2023-06-04T00:44:02.724Z,14.69
2023-06-04T00:46:37.910Z,14.70
2023-06-04T00:49:13.386Z,14.81
2023-06-04T00:51:46.580Z,14.84
2023-06-04T00:54:21.398Z,14.67
2023-06-04T00:56:54.619Z,14.50
2023-06-04T00:59:27.804Z,14.49
2023-06-04T01:02:08.030Z,14.40
2023-06-04T01:04:49.982Z,14.27
2023-06-04T01:07:24.623Z,14.26
2023-06-04T01:09:58.158Z,14.23
2023-06-04T01:12:31.311Z,14.32
2023-06-04T01:15:04.877Z,14.24
2023-06-04T01:17:43.033Z,14.14
2023-06-04T01:20:29.183Z,14.18
2023-06-04T01:23:28.268Z,14.22
2023-06-04T01:26:03.809Z,14.19
2023-06-04T01:28:37.841Z,14.19
2023-06-04T01:31:11.352Z,14.14
2023-06-04T01:33:46.247Z,14.02
2023-06-04T01:36:19.414Z,13.98
2023-06-04T01:38:53.134Z,13.96
2023-06-04T01:41:26.290Z,13.95
2023-06-04T01:43:59.927Z,13.93
2023-06-04T01:46:33.136Z,13.91
2023-06-04T01:49:07.671Z,13.86
2023-06-04T01:51:40.759Z,13.90
2023-06-04T01:54:13.932Z,13.89
2023-06-04T01:56:47.438Z,13.92
2023-06-04T01:59:21.337Z,13.86
2023-06-04T02:01:54.487Z,13.88
2023-06-04T02:04:28.978Z,13.74
2023-06-04T02:07:02.712Z,13.79
2023-06-04T02:09:36.071Z,13.79
2023-06-04T02:12:10.174Z,13.76
2023-06-04T02:14:43.973Z,13.74
2023-06-04T02:17:17.362Z,13.69
2023-06-04T02:19:52.320Z,13.61
2023-06-04T02:22:27.406Z,13.50
2023-06-04T02:25:00.567Z,13.39
2023-06-04T02:27:33.784Z,13.31
2023-06-04T02:30:08.890Z,13.34
2023-06-04T02:32:42.099Z,13.34
2023-06-04T02:35:16.736Z,13.35
2023-06-04T02:37:49.926Z,13.35
2023-06-04T02:40:23.017Z,13.17
2023-06-04T02:42:56.947Z,13.22
2023-06-04T02:45:30.349Z,13.25
2023-06-04T02:48:03.522Z,13.32
2023-06-04T02:50:38.041Z,13.28
2023-06-04T02:53:11.219Z,13.32
2023-06-04T02:55:44.355Z,13.31
2023-06-04T02:58:17.463Z,13.30
2023-06-04T03:00:50.751Z,13.34
2023-06-04T03:03:24.671Z,13.33
2023-06-04T03:06:00.876Z,13.32
2023-06-04T03:08:34.068Z,13.26
2023-06-04T03:11:07.797Z,13.25
2023-06-04T03:13:41.561Z,13.23
2023-06-04T03:16:14.854Z,13.10
2023-06-04T03:18:48.010Z,13.06
2023-06-04T03:21:22.565Z,12.88
2023-06-04T03:23:55.794Z,12.85
2023-06-04T03:26:28.938Z,12.70
2023-06-04T03:29:02.297Z,12.56
2023-06-04T03:31:35.485Z,12.65
2023-06-04T03:34:08.577Z,12.67
2023-06-04T03:36:43.267Z,12.71
2023-06-04T03:39:16.369Z,12.60
2023-06-04T03:41:49.483Z,12.58
2023-06-04T03:44:23.749Z,12.39
2023-06-04T03:46:56.959Z,12.43
2023-06-04T03:49:30.123Z,12.49
2023-06-04T03:52:04.889Z,12.41
2023-06-04T03:54:38.026Z,12.54
2023-06-04T03:57:11.206Z,12.62
2023-06-04T03:59:44.945Z,12.72
2023-06-04T04:02:19.146Z,12.85
2023-06-04T04:04:55.443Z,13.01
2023-06-04T04:07:29.949Z,13.12
2023-06-04T04:10:03.146Z,13.06
2023-06-04T04:12:36.299Z,12.98
2023-06-04T04:15:10.734Z,12.94
2023-06-04T04:17:43.918Z,13.07
2023-06-04T04:20:19.172Z,13.13
2023-06-04T04:22:54.044Z,13.10
2023-06-04T04:25:27.739Z,13.10
2023-06-04T04:28:01.814Z,13.06
2023-06-04T04:30:36.057Z,13.05
2023-06-04T04:33:09.219Z,13.25
2023-06-04T04:35:43.307Z,13.34
2023-06-04T04:38:18.258Z,13.42
2023-06-04T04:40:53.344Z,13.59
2023-06-04T04:43:35.552Z,13.67
2023-06-04T04:46:09.271Z,13.60
2023-06-04T04:48:43.438Z,13.70
2023-06-04T04:51:16.565Z,13.91
2023-06-04T04:53:51.510Z,14.10
2023-06-04T04:56:24.644Z,14.39
2023-06-04T04:58:58.088Z,14.60
2023-06-04T05:01:31.192Z,14.99
2023-06-04T05:04:05.319Z,15.59
2023-06-04T05:06:39.750Z,15.97
2023-06-04T05:09:14.176Z,16.09
2023-06-04T05:11:47.326Z,16.02
2023-06-04T05:14:20.360Z,15.99
2023-06-04T05:16:53.630Z,15.84
2023-06-04T05:19:26.732Z,15.70
2023-06-04T05:21:59.828Z,15.72
2023-06-04T05:24:34.700Z,15.83
2023-06-04T05:27:07.792Z,15.95
2023-06-04T05:29:40.936Z,15.95
2023-06-04T05:32:13.970Z,16.04
2023-06-04T05:34:48.230Z,15.97
2023-06-04T05:37:21.260Z,16.15
2023-06-04T05:39:56.649Z,16.23
2023-06-04T05:42:29.772Z,16.55
2023-06-04T05:45:03.047Z,16.83
2023-06-04T05:47:36.206Z,16.84
2023-06-04T05:50:10.337Z,16.91
2023-06-04T05:52:43.447Z,16.96
2023-06-04T05:55:17.965Z,17.70
2023-06-04T05:57:52.578Z,18.33
2023-06-04T06:00:26.045Z,18.66
2023-06-04T06:02:59.943Z,19.03
2023-06-04T06:05:33.106Z,19.28
2023-06-04T06:08:07.244Z,19.62
2023-06-04T06:10:41.753Z,19.91
2023-06-04T06:13:15.013Z,20.33
2023-06-04T06:15:49.626Z,20.35
2023-06-04T06:18:22.973Z,20.89
2023-06-04T06:20:56.124Z,21.23
2023-06-04T06:23:29.195Z,21.15
2023-06-04T06:26:05.216Z,21.84
2023-06-04T06:28:38.354Z,22.32
2023-06-04T06:31:11.669Z,22.13
2023-06-04T06:33:44.733Z,22.41
2023-06-04T06:36:19.956Z,22.84
2023-06-04T06:38:53.478Z,23.44
2023-06-04T06:41:28.201Z,23.87
2023-06-04T06:44:01.261Z,24.03
2023-06-04T06:46:34.571Z,24.00
2023-06-04T06:49:07.780Z,24.15
2023-06-04T06:51:40.817Z,24.32
2023-06-04T06:54:17.911Z,24.75
2023-06-04T06:56:52.402Z,25.00
2023-06-04T06:59:26.268Z,25.32
2023-06-04T07:01:59.382Z,25.35
2023-06-04T07:04:32.466Z,25.37
2023-06-04T07:07:06.796Z,25.65
2023-06-04T07:09:39.882Z,25.51
2023-06-04T07:12:14.237Z,25.92
2023-06-04T07:14:47.333Z,26.25
2023-06-04T07:17:20.466Z,26.77
2023-06-04T07:19:53.510Z,26.83
2023-06-04T07:22:26.543Z,26.93
2023-06-04T07:24:59.573Z,26.45
2023-06-04T07:27:34.014Z,26.99
2023-06-04T07:30:11.476Z,26.90
2023-06-04T07:32:49.195Z,27.14
2023-06-04T07:35:22.367Z,27.10
2023-06-04T07:37:55.527Z,27.27
2023-06-04T07:40:28.606Z,27.46
2023-06-04T07:43:02.999Z,27.51
2023-06-04T07:45:36.413Z,26.78
2023-06-04T07:48:11.779Z,27.23
2023-06-04T07:50:44.909Z,27.61
2023-06-04T07:53:17.960Z,28.04
2023-06-04T07:55:52.286Z,27.88
2023-06-04T07:58:27.310Z,27.75
2023-06-04T08:01:00.470Z,28.07
2023-06-04T08:03:33.996Z,28.61
2023-06-04T08:06:07.413Z,28.14
2023-06-04T08:08:40.457Z,28.80
2023-06-04T08:11:13.712Z,29.20
2023-06-04T08:13:48.111Z,28.85
2023-06-04T08:16:21.233Z,27.80
2023-06-04T08:18:54.305Z,28.02
2023-06-04T08:21:30.909Z,26.84
2023-06-04T08:24:04.492Z,26.82
2023-06-04T08:26:37.694Z,27.16
2023-06-04T08:29:12.115Z,27.43
2023-06-04T08:31:45.206Z,27.22
2023-06-04T08:34:18.292Z,27.13
2023-06-04T08:36:51.475Z,26.82
2023-06-04T08:39:25.145Z,26.60
2023-06-04T08:42:03.203Z,26.64
2023-06-04T08:44:37.643Z,27.02
2023-06-04T08:47:13.667Z,27.11
2023-06-04T08:49:49.528Z,26.94
2023-06-04T08:52:22.726Z,27.04
2023-06-04T08:54:57.868Z,27.33
2023-06-04T08:57:33.040Z,27.28
2023-06-04T09:00:09.737Z,27.02
2023-06-04T09:02:43.188Z,26.96
2023-06-04T09:05:23.857Z,27.06
2023-06-04T09:08:02.980Z,26.35
2023-06-04T09:10:38.636Z,26.63
2023-06-04T09:13:13.229Z,26.94
2023-06-04T09:15:47.624Z,27.04
2023-06-04T09:18:20.661Z,26.82
2023-06-04T09:21:04.272Z,26.58
2023-06-04T09:23:39.027Z,26.11
2023-06-04T09:26:12.784Z,26.30
2023-06-04T09:28:47.948Z,25.56
2023-06-04T09:31:23.358Z,25.73
2023-06-04T09:33:56.390Z,25.42
2023-06-04T09:36:32.842Z,25.67
2023-06-04T09:39:06.236Z,25.87
2023-06-04T09:41:39.571Z,26.09
2023-06-04T09:44:13.397Z,25.97
2023-06-04T09:46:57.447Z,26.01
2023-06-04T09:49:30.879Z,26.33
2023-06-04T09:52:03.951Z,26.65
2023-06-04T09:54:38.942Z,26.80
2023-06-04T09:57:18.143Z,26.68
2023-06-04T09:59:52.895Z,26.67
2023-06-04T10:02:31.667Z,26.85
2023-06-04T10:05:09.808Z,26.91
2023-06-04T10:07:46.012Z,26.91
2023-06-04T10:10:22.797Z,27.09
2023-06-04T10:13:03.317Z,26.78
2023-06-04T10:15:38.412Z,27.06
2023-06-04T10:18:13.266Z,27.23
2023-06-04T10:20:47.048Z,27.08
2023-06-04T10:23:23.080Z,27.08
2023-06-04T10:25:57.104Z,26.57
2023-06-04T10:28:30.679Z,26.89
2023-06-04T10:31:04.576Z,26.73
2023-06-04T10:33:39.390Z,26.29
2023-06-04T10:36:20.981Z,26.23
2023-06-04T10:38:56.405Z,26.30
2023-06-04T10:41:29.814Z,26.43
2023-06-04T10:44:04.415Z,26.65
2023-06-04T10:46:42.284Z,26.76
2023-06-04T10:49:16.962Z,26.68
2023-06-04T10:51:50.057Z,26.36
2023-06-04T10:54:27.041Z,26.50
2023-06-04T10:57:00.056Z,26.58
2023-06-04T10:59:33.061Z,26.55
2023-06-04T11:02:08.163Z,26.06
2023-06-04T11:04:43.700Z,26.17
2023-06-04T11:07:16.939Z,26.40
2023-06-04T11:09:51.453Z,26.19
2023-06-04T11:12:24.520Z,26.16
2023-06-04T11:14:57.822Z,26.11
2023-06-04T11:17:31.626Z,26.21
2023-06-04T11:20:18.294Z,25.92
2023-06-04T11:22:56.939Z,25.91
2023-06-04T11:25:31.612Z,25.91
2023-06-04T11:28:04.809Z,26.07
2023-06-04T11:30:38.060Z,26.28
2023-06-04T11:33:11.207Z,26.27
2023-06-04T11:35:45.692Z,26.32
2023-06-04T11:38:18.753Z,26.30
2023-06-04T11:41:00.253Z,26.23
2023-06-04T11:43:36.068Z,26.25
2023-06-04T11:46:11.051Z,26.12
2023-06-04T11:48:46.305Z,26.41
2023-06-04T11:51:21.890Z,26.20
2023-06-04T11:53:56.206Z,25.92
2023-06-04T11:56:29.339Z,25.98
2023-06-04T11:59:02.538Z,26.06
2023-06-04T12:01:35.625Z,25.97
2023-06-04T12:04:14.942Z,25.93
2023-06-04T12:06:57.589Z,25.86
2023-06-04T12:09:33.977Z,25.93
2023-06-04T12:12:08.803Z,25.97
2023-06-04T12:14:44.182Z,26.09
2023-06-04T12:17:17.314Z,26.14
2023-06-04T12:19:52.532Z,25.93
2023-06-04T12:22:28.923Z,25.97
2023-06-04T12:25:04.168Z,25.81
2023-06-04T12:27:38.607Z,25.66
2023-06-04T12:30:12.921Z,25.74
2023-06-04T12:32:46.431Z,25.68
2023-06-04T12:35:19.596Z,25.83
2023-06-04T12:37:54.063Z,26.02
2023-06-04T12:40:27.132Z,25.87
2023-06-04T12:43:00.202Z,25.97
2023-06-04T12:45:33.317Z,25.99
2023-06-04T12:48:06.969Z,25.62
2023-06-04T12:50:40.140Z,25.61
2023-06-04T12:53:14.544Z,25.58
2023-06-04T12:55:47.612Z,25.45
2023-06-04T12:58:20.632Z,25.57
2023-06-04T13:00:53.700Z,25.76
2023-06-04T13:03:27.878Z,25.55
2023-06-04T13:06:01.097Z,25.69
2023-06-04T13:08:36.284Z,25.28
2023-06-04T13:11:10.866Z,25.58
2023-06-04T13:13:44.145Z,25.31
2023-06-04T13:16:17.291Z,25.48
2023-06-04T13:18:50.430Z,25.66
2023-06-04T13:21:23.867Z,25.70
2023-06-04T13:23:58.312Z,25.71
2023-06-04T13:26:31.856Z,25.66
2023-06-04T13:29:04.921Z,25.91
2023-06-04T13:31:39.826Z,25.93
2023-06-04T13:34:27.016Z,25.79
2023-06-04T13:37:01.679Z,25.72
2023-06-04T13:39:36.056Z,25.88
2023-06-04T13:42:09.789Z,25.83
2023-06-04T13:44:42.809Z,25.70
2023-06-04T13:47:16.331Z,25.45
2023-06-04T13:49:49.443Z,25.38
2023-06-04T13:52:22.496Z,25.54
2023-06-04T13:54:56.999Z,25.63
2023-06-04T13:57:30.473Z,25.71
2023-06-04T14:00:03.643Z,25.89
2023-06-04T14:02:37.091Z,26.18
2023-06-04T14:05:11.057Z,26.21
2023-06-04T14:07:44.903Z,26.10
2023-06-04T14:10:19.383Z,26.15
2023-06-04T14:12:52.520Z,26.02
2023-06-04T14:15:25.679Z,25.80
2023-06-04T14:17:58.743Z,25.68
2023-06-04T14:20:32.281Z,25.67
2023-06-04T14:23:05.781Z,25.59
2023-06-04T14:25:40.414Z,25.78
2023-06-04T14:28:13.479Z,25.56
2023-06-04T14:30:46.584Z,25.55
2023-06-04T14:33:19.677Z,25.57
2023-06-04T14:35:52.722Z,25.62
2023-06-04T14:38:25.782Z,25.63
2023-06-04T14:41:01.390Z,25.66
2023-06-04T14:43:34.506Z,25.52
2023-06-04T14:46:07.575Z,25.44
2023-06-04T14:48:40.984Z,25.46
2023-06-04T14:51:14.189Z,25.46
2023-06-04T14:53:47.930Z,25.56
2023-06-04T14:56:23.558Z,25.56
2023-06-04T14:58:56.725Z,25.50
2023-06-04T15:01:29.887Z,25.28
2023-06-04T15:04:03.112Z,25.37
2023-06-04T15:06:36.831Z,25.38
2023-06-04T15:09:09.983Z,25.45
2023-06-04T15:11:44.423Z,25.31
2023-06-04T15:14:17.473Z,25.23
2023-06-04T15:16:50.675Z,25.35
2023-06-04T15:19:23.824Z,25.38
2023-06-04T15:21:56.927Z,25.46
2023-06-04T15:24:30.935Z,25.65
2023-06-04T15:27:05.988Z,25.57
2023-06-04T15:29:39.044Z,25.66
2023-06-04T15:32:12.893Z,25.48
2023-06-04T15:34:46.005Z,25.37
2023-06-04T15:37:19.065Z,25.35
2023-06-04T15:39:52.129Z,25.41
2023-06-04T15:42:26.531Z,25.36
2023-06-04T15:45:02.179Z,25.40
2023-06-04T15:47:38.422Z,25.54
2023-06-04T15:50:11.796Z,25.68
2023-06-04T15:52:45.130Z,25.54
2023-06-04T15:55:18.616Z,25.72
2023-06-04T15:57:53.328Z,25.73
2023-06-04T16:00:27.034Z,25.65
2023-06-04T16:03:00.312Z,25.66
2023-06-04T16:05:33.391Z,25.63
2023-06-04T16:08:06.581Z,25.52
2023-06-04T16:10:40.992Z,25.38
2023-06-04T16:13:15.942Z,25.29
2023-06-04T16:15:49.120Z,25.25
2023-06-04T16:18:22.193Z,25.14
2023-06-04T16:20:56.362Z,25.36
2023-06-04T16:23:29.409Z,25.09
2023-06-04T16:26:02.614Z,25.01
2023-06-04T16:28:37.077Z,24.83
2023-06-04T16:31:10.304Z,25.00
2023-06-04T16:33:43.337Z,24.86
2023-06-04T16:36:16.509Z,24.67
2023-06-04T16:38:49.613Z,24.84
2023-06-04T16:41:22.981Z,24.65
2023-06-04T16:43:57.465Z,24.65
2023-06-04T16:46:31.011Z,24.60
2023-06-04T16:49:04.067Z,24.65
2023-06-04T16:51:37.254Z,24.66
2023-06-04T16:54:10.412Z,24.69
2023-06-04T16:56:43.533Z,24.77
2023-06-04T16:59:17.992Z,24.92
2023-06-04T17:01:51.052Z,25.17
2023-06-04T17:04:24.083Z,25.32
2023-06-04T17:06:57.743Z,25.28
2023-06-04T17:09:31.077Z,25.29
2023-06-04T17:12:04.705Z,25.32
2023-06-04T17:14:39.362Z,25.22
2023-06-04T17:17:12.481Z,25.14
2023-06-04T17:19:48.149Z,25.05
2023-06-04T17:22:21.430Z,25.08
2023-06-04T17:24:54.666Z,25.09
2023-06-04T17:27:27.775Z,25.07
2023-06-04T17:30:02.188Z,25.05
2023-06-04T17:32:35.312Z,24.97
2023-06-04T17:35:10.692Z,24.87
2023-06-04T17:37:43.944Z,24.79
2023-06-04T17:40:17.150Z,24.83
2023-06-04T17:42:50.260Z,24.73
2023-06-04T17:45:24.706Z,24.70
2023-06-04T17:47:58.584Z,24.47
2023-06-04T17:50:31.693Z,24.41
2023-06-04T17:53:04.837Z,24.33
2023-06-04T17:55:37.965Z,24.33
2023-06-04T17:58:11.226Z,24.28
2023-06-04T18:00:45.797Z,24.27
2023-06-04T18:03:18.997Z,24.11
2023-06-04T18:05:52.460Z,24.14
2023-06-04T18:08:25.610Z,24.12
2023-06-04T18:10:59.760Z,24.04
2023-06-04T18:13:32.838Z,23.95
2023-06-04T18:16:08.056Z,23.89
2023-06-04T18:18:41.254Z,23.90
2023-06-04T18:21:14.374Z,23.76
2023-06-04T18:23:50.874Z,23.73
2023-06-04T18:26:24.100Z,23.68
2023-06-04T18:28:57.130Z,23.62
2023-06-04T18:31:31.643Z,23.52
2023-06-04T18:34:05.130Z,23.44
2023-06-04T18:36:38.293Z,23.37
2023-06-04T18:39:11.362Z,23.37
2023-06-04T18:41:44.393Z,23.37
2023-06-04T18:44:17.481Z,23.21
2023-06-04T18:46:52.096Z,23.13
2023-06-04T18:49:25.255Z,23.08
2023-06-04T18:51:58.337Z,23.04
2023-06-04T18:54:31.362Z,22.98
2023-06-04T18:57:04.826Z,22.94
2023-06-04T18:59:37.920Z,22.87
2023-06-04T19:02:12.284Z,22.74
2023-06-04T19:04:46.935Z,22.62
2023-06-04T19:07:20.962Z,22.53
2023-06-04T19:09:54.077Z,22.37
2023-06-04T19:12:27.801Z,22.32
2023-06-04T19:15:00.990Z,22.22
2023-06-04T19:17:35.414Z,22.20
2023-06-04T19:20:09.543Z,22.14
2023-06-04T19:22:43.377Z,22.06
2023-06-04T19:25:16.628Z,21.97
2023-06-04T19:27:54.745Z,21.93
2023-06-04T19:30:27.840Z,21.89
2023-06-04T19:33:02.299Z,21.82
2023-06-04T19:35:36.192Z,21.74
2023-06-04T19:38:09.609Z,21.63
2023-06-04T19:40:42.672Z,21.51
2023-06-04T19:43:15.998Z,21.35
2023-06-04T19:45:50.444Z,21.24
2023-06-04T19:48:24.932Z,21.08
2023-06-04T19:50:57.991Z,21.06
2023-06-04T19:53:31.235Z,20.98
2023-06-04T19:56:04.330Z,20.82
2023-06-04T19:58:37.370Z,20.76
2023-06-04T20:01:11.588Z,20.66
2023-06-04T20:03:46.136Z,20.59
2023-06-04T20:06:19.719Z,20.49
2023-06-04T20:08:52.772Z,20.44
2023-06-04T20:11:27.273Z,20.28
2023-06-04T20:14:01.258Z,20.18
2023-06-04T20:16:34.775Z,20.17
2023-06-04T20:19:09.312Z,20.09
2023-06-04T20:21:42.509Z,19.96
2023-06-04T20:24:18.057Z,19.80
2023-06-04T20:26:52.637Z,19.68
2023-06-04T20:29:28.216Z,19.61
2023-06-04T20:32:01.322Z,19.55
2023-06-04T20:34:35.788Z,19.50
2023-06-04T20:37:08.922Z,19.40
2023-06-04T20:39:43.458Z,19.32
2023-06-04T20:42:16.758Z,19.29
2023-06-04T20:44:50.042Z,19.22
2023-06-04T20:47:23.195Z,19.11
2023-06-04T20:49:57.696Z,19.01
2023-06-04T20:52:30.767Z,18.94
2023-06-04T20:55:03.984Z,18.87
2023-06-04T20:57:37.770Z,18.84
2023-06-04T21:00:12.035Z,18.74
2023-06-04T21:02:45.277Z,18.64
2023-06-04T21:05:19.811Z,18.48
2023-06-04T21:07:52.929Z,18.41
2023-06-04T21:10:27.537Z,18.36
2023-06-04T21:13:00.781Z,18.29
2023-06-04T21:15:33.871Z,18.21
2023-06-04T21:18:07.072Z,18.12
2023-06-04T21:20:41.557Z,17.99
2023-06-04T21:23:14.688Z,17.96
2023-06-04T21:25:47.992Z,17.86
2023-06-04T21:28:21.088Z,17.82
2023-06-04T21:30:54.177Z,17.81
2023-06-04T21:33:27.990Z,17.68
2023-06-04T21:36:02.507Z,17.56
2023-06-04T21:38:35.622Z,17.51
2023-06-04T21:41:09.057Z,17.43
2023-06-04T21:43:42.336Z,17.14
2023-06-04T21:46:15.907Z,17.16
2023-06-04T21:48:49.211Z,17.10
2023-06-04T21:51:23.820Z,17.08
2023-06-04T21:53:57.017Z,17.08
2023-06-04T21:56:30.153Z,17.01
2023-06-04T21:59:03.308Z,16.97
2023-06-04T22:01:36.580Z,16.95
2023-06-04T22:04:09.771Z,16.84
2023-06-04T22:06:44.380Z,16.81
2023-06-04T22:09:17.679Z,16.78
2023-06-04T22:11:50.863Z,16.76
2023-06-04T22:14:24.127Z,16.73
2023-06-04T22:16:57.376Z,16.69
2023-06-04T22:19:30.547Z,16.62
2023-06-04T22:22:05.337Z,16.61
2023-06-04T22:24:38.507Z,16.53
2023-06-04T22:27:11.810Z,16.46
2023-06-04T22:29:45.001Z,16.42
2023-06-04T22:32:18.153Z,16.30
2023-06-04T22:34:51.345Z,16.17
2023-06-04T22:37:25.896Z,16.08
2023-06-04T22:40:00.411Z,15.95
2023-06-04T22:42:33.660Z,15.97
2023-06-04T22:45:08.371Z,15.96
2023-06-04T22:47:41.654Z,15.89
2023-06-04T22:50:14.854Z,15.81
2023-06-04T22:52:49.854Z,15.79
2023-06-04T22:55:23.236Z,15.77
2023-06-04T22:57:56.392Z,15.68
2023-06-04T23:00:29.597Z,15.66
2023-06-04T23:03:02.994Z,15.68
2023-06-04T23:05:36.312Z,15.58
2023-06-04T23:08:10.843Z,15.52
2023-06-04T23:10:44.162Z,15.57
2023-06-04T23:13:18.408Z,15.46
2023-06-04T23:15:51.799Z,15.36
2023-06-04T23:18:25.002Z,15.35
2023-06-04T23:20:58.266Z,15.39
2023-06-04T23:23:32.821Z,15.37
2023-06-04T23:26:06.111Z,15.28
2023-06-04T23:28:39.339Z,15.27
2023-06-04T23:31:12.542Z,15.29
2023-06-04T23:33:45.972Z,15.23
2023-06-04T23:36:19.337Z,15.17
2023-06-04T23:38:53.923Z,15.08
2023-06-04T23:41:27.159Z,15.03
2023-06-04T23:44:00.600Z,14.93
2023-06-04T23:46:33.846Z,14.71
2023-06-04T23:49:07.134Z,14.78
2023-06-04T23:51:40.404Z,14.68
2023-06-04T23:54:18.585Z,14.66
2023-06-04T23:56:52.413Z,14.59
2023-06-04T23:59:25.902Z,14.62
